Time;durP1;ratioP1;P1;durP2;ratioP2;P2;SDS_P1;SDS_P2;PMS_P1;PMS_P2;Temp;Humidity;BMP_temperature;BMP_pressure;BME280_temperature;BME280_humidity;BME280_pressure;Samples;Min_cycle;Max_cycle;Signal;HPM_P1;HPM_P2
2023/08/06 00:00:28;;;;;;;0.80;0.65;;;;;;;29.83;38.25;99615.69;7393669;19;20343;-80
2023/08/06 00:02:54;;;;;;;0.88;0.63;;;;;;;29.22;39.00;99612.91;7387211;19;20022;-79
2023/08/06 00:05:21;;;;;;;1.48;0.60;;;;;;;29.38;39.13;99621.88;7389164;19;20480;-80
2023/08/06 00:07:47;;;;;;;0.60;0.60;;;;;;;29.70;38.45;99616.22;7386267;19;20006;-80
2023/08/06 00:10:14;;;;;;;0.35;0.35;;;;;;;30.29;37.64;99618.03;7385595;19;20019;-80
2023/08/06 00:12:41;;;;;;;2.40;0.40;;;;;;;29.01;39.25;99622.19;7387822;19;20017;-80
2023/08/06 00:15:08;;;;;;;0.50;0.43;;;;;;;31.04;37.10;99612.06;7387673;19;20011;-79
2023/08/06 00:17:34;;;;;;;0.47;0.47;;;;;;;31.70;36.63;99623.28;7386318;19;20018;-79
2023/08/06 00:20:05;;;;;;;6.57;0.75;;;;;;;31.84;35.93;99621.22;7392623;19;20010;-79
2023/08/06 00:22:35;;;;;;;;;;;;;;;31.42;36.66;99623.06;7390674;19;20014;-80
2023/08/06 00:25:01;;;;;;;1.90;0.52;;;;;;;31.39;36.62;99618.56;7386669;19;20390;-80
2023/08/06 00:27:27;;;;;;;0.85;0.52;;;;;;;31.55;35.93;99618.81;7388441;19;20022;-79
2023/08/06 00:29:53;;;;;;;0.40;0.40;;;;;;;32.10;35.35;99619.91;7392530;19;20764;-80
2023/08/06 00:32:20;;;;;;;0.40;0.40;;;;;;;31.67;35.82;99621.66;7394185;19;21281;-80
2023/08/06 00:34:46;;;;;;;0.30;0.30;;;;;;;31.42;35.88;99628.09;7396030;19;20010;-80
2023/08/06 00:37:14;;;;;;;1.30;0.63;;;;;;;31.15;36.60;99622.81;7399175;19;20022;-80
2023/08/06 00:39:40;;;;;;;5.38;0.73;;;;;;;31.15;36.07;99619.94;7393961;19;20026;-79
2023/08/06 00:42:06;;;;;;;0.15;0.15;;;;;;;30.81;36.27;99629.28;7391104;19;20014;-79
2023/08/06 00:44:33;;;;;;;0.32;0.32;;;;;;;31.13;36.11;99637.09;7392774;19;20039;-79
2023/08/06 00:46:59;;;;;;;0.30;0.30;;;;;;;31.40;35.89;99631.59;7389361;19;20028;-80
2023/08/06 00:49:26;;;;;;;0.98;0.47;;;;;;;30.78;36.32;99644.16;7391901;19;20029;-80
2023/08/06 00:51:53;;;;;;;0.75;0.75;;;;;;;29.79;37.31;99646.25;7393349;19;20492;-80
2023/08/06 00:54:19;;;;;;;1.38;0.52;;;;;;;30.68;36.16;99644.28;7397904;19;20018;-80
2023/08/06 00:56:46;;;;;;;0.40;0.40;;;;;;;30.73;36.08;99651.78;7394975;19;20555;-80
2023/08/06 00:59:13;;;;;;;1.67;0.50;;;;;;;30.77;36.17;99646.28;7393792;19;20773;-80
2023/08/06 01:01:39;;;;;;;1.20;0.60;;;;;;;30.88;35.56;99657.09;7391195;19;20014;-80
2023/08/06 01:04:05;;;;;;;0.30;0.30;;;;;;;29.83;37.24;99661.66;7392104;19;20021;-80
2023/08/06 01:07:13;;;;;;;0.40;0.40;;;;;;;29.42;37.94;99663.09;7391744;19;20031;-79
2023/08/06 01:10:05;;;;;;;0.85;0.65;;;;;;;29.47;38.15;99670.63;7388429;19;20029;-80
2023/08/06 01:12:45;;;;;;;7.13;1.35;;;;;;;29.80;38.06;99660.00;7387506;19;20516;-80
2023/08/06 01:15:24;;;;;;;0.73;0.73;;;;;;;30.41;37.79;99664.06;7389872;19;20022;-80
2023/08/06 01:17:50;;;;;;;1.00;0.50;;;;;;;30.36;37.36;99657.31;7392206;19;20023;-79
2023/08/06 01:20:17;;;;;;;1.95;0.40;;;;;;;30.08;38.07;99663.28;7395489;19;20020;-80
2023/08/06 01:22:43;;;;;;;0.75;0.52;;;;;;;32.23;36.02;99650.94;7392393;19;20574;-80
2023/08/06 01:25:09;;;;;;;0.82;0.35;;;;;;;32.92;35.06;99659.22;7393078;19;20006;-80
2023/08/06 01:27:46;;;;;;;0.38;0.35;;;;;;;33.10;35.14;99652.97;7389914;19;20370;-81
2023/08/06 01:30:16;;;;;;;1.17;0.38;;;;;;;33.99;34.07;99656.28;7394734;19;20026;-80
2023/08/06 01:32:48;;;;;;;0.75;0.73;;;;;;;34.34;33.61;99659.53;7394090;19;20032;-80
2023/08/06 01:35:17;;;;;;;4.47;0.75;;;;;;;34.73;33.03;99664.31;7393552;19;20469;-80
2023/08/06 01:37:44;;;;;;;2.22;0.60;;;;;;;35.15;32.46;99674.28;7396469;19;20041;-80
2023/08/06 01:40:14;;;;;;;0.43;0.30;;;;;;;34.66;32.93;99666.16;7405148;19;20018;-80
2023/08/06 01:42:40;;;;;;;0.93;0.67;;;;;;;34.24;33.62;99673.47;7391161;19;20026;-80
2023/08/06 01:45:08;;;;;;;0.88;0.85;;;;;;;34.68;32.80;99668.41;7391219;19;20022;-79
2023/08/06 01:47:34;;;;;;;0.13;0.13;;;;;;;34.79;32.75;99673.28;7393047;19;20337;-79
2023/08/06 01:50:01;;;;;;;1.75;0.25;;;;;;;34.69;33.13;99672.78;7389146;19;20473;-79
2023/08/06 01:52:28;;;;;;;0.80;0.57;;;;;;;35.05;33.21;99665.84;7394204;19;20018;-79
2023/08/06 01:54:55;;;;;;;1.17;0.90;;;;;;;35.20;32.88;99670.91;7392066;19;20023;-79
2023/08/06 01:57:21;;;;;;;0.45;0.17;;;;;;;35.00;32.71;99679.38;7393923;19;20074;-79
2023/08/06 01:59:47;;;;;;;1.38;0.52;;;;;;;35.09;32.90;99685.59;7392254;19;20018;-80
2023/08/06 02:02:13;;;;;;;5.50;1.13;;;;;;;35.18;32.72;99679.50;7387145;19;20038;-80
2023/08/06 02:04:40;;;;;;;3.03;0.80;;;;;;;35.21;32.46;99683.22;7391717;19;20014;-79
2023/08/06 02:07:06;;;;;;;0.63;0.52;;;;;;;35.31;32.20;99678.66;7396476;19;20119;-80
2023/08/06 02:09:33;;;;;;;0.20;0.20;;;;;;;35.54;32.12;99681.16;7392992;19;20521;-80
2023/08/06 02:11:59;;;;;;;1.25;0.20;;;;;;;35.32;32.12;99688.84;7389967;19;20078;-79
2023/08/06 02:14:25;;;;;;;0.35;0.32;;;;;;;35.00;32.32;99681.53;7392096;19;20010;-79
2023/08/06 02:16:51;;;;;;;2.92;0.93;;;;;;;33.02;34.14;99684.28;7396065;19;20039;-79
2023/08/06 02:19:17;;;;;;;1.20;0.45;;;;;;;33.52;33.80;99684.16;7390581;19;20881;-79
2023/08/06 02:21:43;;;;;;;0.45;0.30;;;;;;;33.19;33.86;99683.78;7388291;19;20018;-80
2023/08/06 02:24:09;;;;;;;1.05;0.50;;;;;;;32.87;33.98;99680.59;7388643;19;20022;-80
2023/08/06 02:26:36;;;;;;;0.30;0.30;;;;;;;32.29;34.70;99683.00;7392705;19;20338;-80
2023/08/06 02:29:02;;;;;;;0.60;0.60;;;;;;;31.95;34.93;99683.84;7390237;19;20015;-79
2023/08/06 02:31:28;;;;;;;1.33;0.25;;;;;;;33.15;33.44;99686.44;7390337;19;20584;-80
2023/08/06 02:33:54;;;;;;;0.45;0.45;;;;;;;32.24;34.26;99681.25;7391918;19;20018;-80
2023/08/06 02:36:20;;;;;;;1.63;1.08;;;;;;;31.98;34.52;99683.34;7394756;19;20017;-79
2023/08/06 02:38:47;;;;;;;0.68;0.47;;;;;;;32.05;34.28;99685.19;7392772;19;20059;-79
2023/08/06 02:41:13;;;;;;;2.05;0.95;;;;;;;32.14;34.25;99683.53;7388965;19;20086;-80
2023/08/06 02:43:39;;;;;;;0.65;0.65;;;;;;;32.15;34.55;99679.28;7390076;19;20031;-79
2023/08/06 02:46:07;;;;;;;0.43;0.32;;;;;;;32.51;33.93;99687.19;7390928;19;20002;-79
2023/08/06 02:48:33;;;;;;;0.40;0.38;;;;;;;32.26;34.13;99687.16;7392754;19;20018;-79
2023/08/06 02:51:00;;;;;;;1.17;0.82;;;;;;;31.85;34.84;99686.09;7386552;19;20010;-79
2023/08/06 02:53:27;;;;;;;1.30;0.40;;;;;;;30.67;36.20;99694.50;7390663;19;20110;-79
2023/08/06 02:55:54;;;;;;;1.38;0.63;;;;;;;29.54;37.38;99698.34;7391735;19;20014;-80
2023/08/06 02:58:25;;;;;;;3.22;1.27;;;;;;;29.35;37.80;99692.72;7389642;19;20006;-79
2023/08/06 03:01:05;;;;;;;2.38;0.90;;;;;;;31.23;35.42;99686.63;7388135;19;20014;-79
2023/08/06 03:03:36;;;;;;;0.63;0.63;;;;;;;32.00;34.52;99685.59;7388834;19;20043;-79
2023/08/06 03:06:05;;;;;;;0.30;0.30;;;;;;;29.95;36.45;99696.91;7390449;19;20473;-79
2023/08/06 03:08:41;;;;;;;0.82;0.68;;;;;;;29.64;37.18;99701.19;7388773;19;20028;-79
2023/08/06 03:11:07;;;;;;;0.73;0.40;;;;;;;28.98;37.99;99711.53;7388535;19;20018;-79
2023/08/06 03:13:34;;;;;;;0.60;0.60;;;;;;;29.00;38.51;99708.84;7390455;19;20022;-79
2023/08/06 03:16:01;;;;;;;1.58;0.80;;;;;;;30.21;36.87;99700.06;7392077;19;20014;-79
2023/08/06 03:18:29;;;;;;;1.05;0.75;;;;;;;30.52;36.57;99709.34;7393609;19;20014;-79
2023/08/06 03:20:58;;;;;;;2.55;1.00;;;;;;;30.92;36.31;99703.38;7387951;19;20050;-79
2023/08/06 03:23:27;;;;;;;1.75;1.27;;;;;;;31.22;35.90;99696.66;7387360;19;20022;-80
2023/08/06 03:25:53;;;;;;;0.40;0.40;;;;;;;31.43;35.52;99698.66;7389343;19;20025;-79
2023/08/06 03:28:20;;;;;;;1.67;0.70;;;;;;;31.23;35.93;99698.13;7387584;19;20021;-79
2023/08/06 03:30:46;;;;;;;2.40;0.88;;;;;;;31.35;35.46;99698.16;7386807;19;20018;-79
2023/08/06 03:33:13;;;;;;;4.13;0.68;;;;;;;31.67;35.33;99699.41;7388492;19;20022;-79
2023/08/06 03:35:40;;;;;;;0.43;0.40;;;;;;;31.16;35.83;99702.03;7390198;19;20022;-79
2023/08/06 03:38:06;;;;;;;0.60;0.40;;;;;;;31.36;35.66;99688.88;7389042;19;20052;-79
2023/08/06 03:40:36;;;;;;;0.63;0.20;;;;;;;31.59;35.19;99690.28;7388092;19;20011;-79
2023/08/06 03:43:02;;;;;;;0.93;0.47;;;;;;;31.49;35.51;99684.66;7387141;19;20018;-79
2023/08/06 03:45:28;;;;;;;0.32;0.32;;;;;;;30.68;36.31;99696.78;7388031;19;20122;-79
2023/08/06 03:47:54;;;;;;;1.88;0.43;;;;;;;31.58;35.54;99697.44;7388434;19;20010;-79
2023/08/06 03:50:20;;;;;;;0.20;0.20;;;;;;;31.42;35.38;99700.78;7385820;19;20140;-80
2023/08/06 03:52:46;;;;;;;0.90;0.75;;;;;;;31.05;36.11;99702.78;7389624;19;20014;-80
2023/08/06 03:55:12;;;;;;;0.65;0.45;;;;;;;31.24;35.81;99698.91;7388245;19;20331;-79
2023/08/06 03:57:39;;;;;;;0.68;0.30;;;;;;;31.01;36.01;99699.63;7391255;19;20035;-80
2023/08/06 04:00:06;;;;;;;0.80;0.47;;;;;;;31.32;36.00;99696.50;7388803;19;20041;-79
2023/08/06 04:02:41;;;;;;;0.40;0.40;;;;;;;32.35;34.69;99697.78;7391375;19;20018;-80
2023/08/06 04:05:08;;;;;;;0.50;0.50;;;;;;;33.08;34.02;99693.25;7395496;19;20018;-79
2023/08/06 04:07:34;;;;;;;1.50;0.65;;;;;;;34.19;32.83;99689.13;7392743;19;20681;-79
2023/08/06 04:10:03;;;;;;;2.00;0.40;;;;;;;34.67;32.04;99695.84;7393512;19;20021;-80
2023/08/06 04:12:30;;;;;;;0.47;0.47;;;;;;;34.80;31.88;99698.69;7394578;19;20769;-80
2023/08/06 04:14:58;;;;;;;0.20;0.20;;;;;;;35.41;30.88;99695.75;7394230;19;20092;-79
2023/08/06 04:17:24;;;;;;;0.47;0.47;;;;;;;35.98;30.28;99699.03;7398266;19;20030;-79
2023/08/06 04:19:52;;;;;;;0.30;0.25;;;;;;;36.05;29.94;99698.66;7394379;19;20407;-79
2023/08/06 04:22:19;;;;;;;2.63;0.73;;;;;;;35.85;30.31;99702.78;7392874;19;20018;-79
2023/08/06 04:24:46;;;;;;;0.32;0.32;;;;;;;35.83;30.20;99700.56;7395485;19;20006;-80
2023/08/06 04:27:13;;;;;;;0.38;0.38;;;;;;;35.53;30.05;99708.66;7399595;19;20483;-80
2023/08/06 04:29:40;;;;;;;0.43;0.38;;;;;;;34.15;31.12;99712.06;7395354;19;20408;-79
2023/08/06 04:32:09;;;;;;;0.60;0.60;;;;;;;34.32;30.88;99707.84;7392617;19;20015;-79
2023/08/06 04:34:37;;;;;;;0.40;0.40;;;;;;;34.47;31.15;99717.97;7396984;19;20425;-79
2023/08/06 04:37:04;;;;;;;3.63;1.27;;;;;;;34.45;31.17;99712.84;7398411;19;20015;-80
2023/08/06 04:39:31;;;;;;;0.88;0.68;;;;;;;34.31;31.11;99717.91;7394842;19;20015;-80
2023/08/06 04:42:00;;;;;;;1.70;0.73;;;;;;;34.51;31.31;99712.41;7394326;19;20033;-79
2023/08/06 04:44:27;;;;;;;0.55;0.47;;;;;;;34.83;30.60;99713.97;7391930;19;20006;-80
2023/08/06 04:46:53;;;;;;;0.47;0.47;;;;;;;34.37;31.35;99726.16;7396104;19;20127;-79
2023/08/06 04:49:22;;;;;;;1.85;0.57;;;;;;;34.40;31.48;99725.59;7391688;19;20465;-80
2023/08/06 04:51:48;;;;;;;0.95;0.77;;;;;;;31.59;34.36;99721.97;7393581;19;20022;-79
2023/08/06 04:54:15;;;;;;;1.42;0.57;;;;;;;25.60;41.67;99744.72;7394961;19;20477;-79
2023/08/06 04:56:41;;;;;;;0.40;0.40;;;;;;;32.19;34.64;99725.63;7398969;19;20476;-80
2023/08/06 04:59:07;;;;;;;0.43;0.32;;;;;;;32.94;34.03;99727.09;7394359;19;20021;-80
2023/08/06 05:01:33;;;;;;;0.57;0.57;;;;;;;32.29;34.82;99734.91;7393522;19;20073;-80
2023/08/06 05:03:59;;;;;;;0.82;0.70;;;;;;;31.24;35.55;99744.94;7393662;19;20018;-80
2023/08/06 05:06:25;;;;;;;1.00;0.63;;;;;;;30.50;36.84;99750.22;7395199;19;20369;-80
2023/08/06 05:08:51;;;;;;;0.50;0.50;;;;;;;30.41;36.91;99741.66;7392158;19;20018;-79
2023/08/06 05:11:17;;;;;;;0.90;0.30;;;;;;;29.08;38.44;99743.84;7389060;19;20469;-79
2023/08/06 05:13:44;;;;;;;4.35;1.55;;;;;;;30.22;37.65;99753.28;7394332;19;20018;-80
2023/08/06 05:16:10;;;;;;;1.30;0.65;;;;;;;28.49;39.23;99758.81;7395417;19;20039;-80
2023/08/06 05:18:37;;;;;;;1.40;1.25;;;;;;;30.39;38.03;99759.53;7394365;19;20129;-80
2023/08/06 05:21:03;;;;;;;0.80;0.52;;;;;;;32.12;36.09;99756.22;7392419;19;20014;-80
2023/08/06 05:23:29;;;;;;;0.50;0.50;;;;;;;31.06;37.61;99761.03;7391908;19;20043;-80
2023/08/06 05:25:56;;;;;;;1.23;0.57;;;;;;;30.67;38.32;99760.63;7392649;19;20058;-80
2023/08/06 05:28:22;;;;;;;0.75;0.65;;;;;;;31.28;37.87;99759.59;7390832;19;20022;-79
2023/08/06 05:30:48;;;;;;;2.00;0.65;;;;;;;32.00;37.11;99754.75;7390480;19;20481;-80
2023/08/06 05:33:14;;;;;;;0.40;0.38;;;;;;;31.12;38.54;99762.19;7394934;19;20380;-79
2023/08/06 05:35:41;;;;;;;5.55;1.60;;;;;;;32.11;37.26;99753.97;7395437;19;20371;-79
2023/08/06 05:38:07;;;;;;;1.13;0.90;;;;;;;30.20;39.31;99773.25;7393800;19;20085;-82
2023/08/06 05:40:34;;;;;;;0.30;0.30;;;;;;;29.74;40.30;99767.94;7393937;19;20357;-81
2023/08/06 05:43:00;;;;;;;2.95;0.85;;;;;;;30.33;39.94;99775.59;7391180;19;20014;-81
2023/08/06 05:45:26;;;;;;;3.00;0.45;;;;;;;29.34;41.10;99777.31;7392222;19;20369;-81
2023/08/06 05:47:54;;;;;;;2.30;0.55;;;;;;;30.82;39.68;99780.31;7395048;19;20355;-81
2023/08/06 05:50:20;;;;;;;1.95;0.52;;;;;;;31.55;38.95;99782.94;7390450;19;20022;-81
2023/08/06 05:52:46;;;;;;;0.38;0.38;;;;;;;31.40;39.05;99781.28;7391498;19;20398;-81
2023/08/06 05:55:12;;;;;;;6.18;0.73;;;;;;;31.50;39.49;99791.94;7392167;19;20014;-81
2023/08/06 05:57:38;;;;;;;0.90;0.70;;;;;;;30.34;40.50;99785.75;7392010;19;20331;-81
2023/08/06 06:06:06;;;;;;;1.23;0.75;;;;;;;30.66;40.38;99788.66;7393531;19;20021;-56
2023/08/06 06:08:33;;;;;;;0.38;0.38;;;;;;;30.23;41.64;99790.03;7392637;19;20019;-56
2023/08/06 06:11:00;;;;;;;0.20;0.20;;;;;;;31.89;39.71;99784.31;7394414;19;20451;-56
2023/08/06 06:13:26;;;;;;;0.35;0.35;;;;;;;32.90;38.25;99785.31;7393784;19;20070;-56
2023/08/06 06:15:55;;;;;;;0.32;0.30;;;;;;;31.38;39.65;99795.50;7395272;19;20007;-56
2023/08/06 06:18:22;;;;;;;1.23;0.75;;;;;;;30.04;41.82;99784.38;7397821;19;20011;-56
2023/08/06 06:20:48;;;;;;;1.65;0.70;;;;;;;30.07;42.38;99793.91;7394449;19;20018;-56
2023/08/06 06:23:14;;;;;;;3.25;1.30;;;;;;;31.47;40.69;99796.06;7394933;19;20019;-56
2023/08/06 06:25:49;;;;;;;1.38;0.25;;;;;;;31.76;41.04;99800.09;7393736;19;20019;-57
2023/08/06 06:28:15;;;;;;;4.60;0.60;;;;;;;31.49;41.75;99799.06;7395426;19;20011;-57
2023/08/06 06:30:42;;;;;;;1.60;0.90;;;;;;;31.67;41.57;99792.31;7395118;19;20007;-56
2023/08/06 06:33:08;;;;;;;0.90;0.60;;;;;;;32.66;40.46;99793.31;7394932;19;20031;-56
2023/08/06 06:35:34;;;;;;;2.70;0.55;;;;;;;32.06;41.71;99799.09;7394904;19;20022;-56
2023/08/06 06:38:00;;;;;;;0.65;0.47;;;;;;;32.09;41.71;99797.09;7398861;19;20486;-56
2023/08/06 06:40:26;;;;;;;3.40;0.40;;;;;;;32.32;41.32;99796.28;7394372;19;20010;-56
2023/08/06 06:42:52;;;;;;;1.23;0.22;;;;;;;32.58;41.56;99794.97;7395177;19;20011;-56
2023/08/06 06:45:18;;;;;;;2.15;0.80;;;;;;;32.24;41.73;99802.31;7394532;19;20017;-56
2023/08/06 06:47:45;;;;;;;2.33;0.90;;;;;;;31.84;42.39;99806.34;7396354;19;20018;-56
2023/08/06 06:50:11;;;;;;;2.42;0.32;;;;;;;31.21;43.26;99810.25;7393073;19;20477;-56
2023/08/06 06:52:37;;;;;;;4.50;0.35;;;;;;;31.12;43.79;99813.97;7395243;19;20010;-56
2023/08/06 06:55:04;;;;;;;0.60;0.45;;;;;;;31.41;43.66;99811.59;7395145;19;20459;-56
2023/08/06 06:57:30;;;;;;;0.85;0.63;;;;;;;31.13;44.22;99815.50;7399688;19;20018;-56
2023/08/06 06:59:56;;;;;;;2.42;0.40;;;;;;;32.05;43.53;99808.38;7393869;19;20482;-56
2023/08/06 07:02:22;;;;;;;2.40;0.32;;;;;;;31.95;43.51;99816.38;7393169;19;20010;-57
2023/08/06 07:04:50;;;;;;;1.23;0.80;;;;;;;32.26;43.10;99822.63;7394083;19;20014;-57
2023/08/06 07:07:16;;;;;;;4.88;0.98;;;;;;;32.01;43.02;99820.38;7397882;19;20011;-56
2023/08/06 07:09:42;;;;;;;2.95;0.50;;;;;;;31.00;44.39;99826.81;7394557;19;20372;-56
2023/08/06 07:12:08;;;;;;;4.28;1.63;;;;;;;30.26;45.84;99825.38;7394202;19;20010;-56
2023/08/06 07:14:34;;;;;;;0.68;0.68;;;;;;;31.21;44.74;99827.50;7394236;19;20015;-56
2023/08/06 07:17:00;;;;;;;2.47;0.30;;;;;;;32.84;42.61;99831.13;7397275;19;20102;-56
2023/08/06 07:19:27;;;;;;;0.68;0.38;;;;;;;32.29;43.20;99832.16;7392926;19;20012;-56
2023/08/06 07:21:53;;;;;;;1.10;0.45;;;;;;;31.78;43.72;99836.91;7392309;19;20007;-56
2023/08/06 07:24:19;;;;;;;0.40;0.38;;;;;;;33.77;41.39;99837.16;7392454;19;20006;-56
2023/08/06 07:26:45;;;;;;;1.13;0.40;;;;;;;34.35;40.46;99834.53;7396168;19;20502;-56
2023/08/06 07:29:11;;;;;;;1.27;0.40;;;;;;;34.71;40.40;99829.91;7394043;19;20019;-57
2023/08/06 07:31:37;;;;;;;0.20;0.20;;;;;;;34.98;40.13;99837.75;7392395;19;20014;-57
2023/08/06 07:34:03;;;;;;;3.70;0.22;;;;;;;35.25;39.35;99837.66;7393480;19;20045;-56
2023/08/06 07:36:29;;;;;;;0.40;0.30;;;;;;;35.62;39.34;99834.38;7395856;19;20015;-57
2023/08/06 07:38:56;;;;;;;0.52;0.40;;;;;;;31.28;44.44;99843.06;7402053;19;20011;-57
2023/08/06 07:41:23;;;;;;;0.40;0.20;;;;;;;31.03;48.03;99837.88;7400402;19;20015;-57
2023/08/06 07:43:49;;;;;;;1.75;0.45;;;;;;;29.34;51.32;99833.94;7400044;19;20062;-55
2023/08/06 07:46:15;;;;;;;4.70;0.45;;;;;;;35.12;42.73;99838.47;7401429;19;20010;-55
2023/08/06 07:48:41;;;;;;;3.00;0.93;;;;;;;36.32;41.05;99843.41;7404429;19;20018;-55
2023/08/06 07:51:08;;;;;;;0.50;0.25;;;;;;;36.67;39.99;99842.78;7399620;19;20010;-55
2023/08/06 07:53:34;;;;;;;2.92;0.52;;;;;;;36.93;39.16;99829.38;7401068;19;20015;-55
2023/08/06 07:56:02;;;;;;;1.20;0.30;;;;;;;37.16;39.07;99834.72;7401499;19;20021;-55
2023/08/06 07:58:29;;;;;;;0.28;0.25;;;;;;;37.59;38.13;99831.34;7400698;19;20015;-55
2023/08/06 08:00:55;;;;;;;1.10;0.38;;;;;;;37.51;36.76;99827.38;7399314;19;20010;-55
2023/08/06 08:03:22;;;;;;;0.80;0.55;;;;;;;37.11;36.84;99833.06;7399062;19;20336;-55
2023/08/06 08:05:48;;;;;;;0.50;0.25;;;;;;;36.91;36.72;99837.28;7399376;19;20120;-58
2023/08/06 08:08:14;;;;;;;1.00;0.60;;;;;;;37.00;36.64;99831.13;7399379;19;20359;-58
2023/08/06 08:10:42;;;;;;;0.30;0.10;;;;;;;36.97;36.66;99846.25;7398974;19;20092;-58
2023/08/06 08:13:08;;;;;;;0.47;0.20;;;;;;;36.78;36.59;99846.84;7400180;19;20006;-58
2023/08/06 08:15:34;;;;;;;1.80;0.40;;;;;;;36.79;36.81;99849.09;7398942;19;20074;-58
2023/08/06 08:18:01;;;;;;;0.20;0.20;;;;;;;36.95;36.38;99849.81;7400187;19;20015;-58
2023/08/06 08:20:32;;;;;;;3.55;0.43;;;;;;;37.37;35.58;99844.25;7397112;19;20011;-58
2023/08/06 08:23:00;;;;;;;0.55;0.40;;;;;;;37.51;35.92;99841.91;7400322;19;20028;-58
2023/08/06 08:25:26;;;;;;;0.47;0.32;;;;;;;37.15;36.51;99850.63;7399460;19;20014;-58
2023/08/06 08:27:54;;;;;;;0.47;0.32;;;;;;;38.01;35.31;99846.03;7397137;19;20014;-59
2023/08/06 08:30:21;;;;;;;1.05;0.30;;;;;;;38.07;35.10;99852.84;7398926;19;20006;-59
2023/08/06 08:32:48;;;;;;;1.17;0.47;;;;;;;38.07;35.03;99846.25;7397868;19;20347;-59
2023/08/06 08:35:15;;;;;;;0.85;0.20;;;;;;;38.17;34.78;99849.53;7397300;19;20011;-59
2023/08/06 08:37:43;;;;;;;0.82;0.40;;;;;;;38.17;34.64;99843.72;7402628;19;20382;-59
2023/08/06 08:40:10;;;;;;;2.28;0.50;;;;;;;38.28;34.61;99846.34;7397179;19;20091;-59
2023/08/06 08:42:37;;;;;;;0.22;0.03;;;;;;;38.10;34.32;99848.56;7397906;19;20038;-60
2023/08/06 08:45:07;;;;;;;0.10;0.10;;;;;;;38.15;33.82;99853.13;7398765;19;20018;-59
2023/08/06 08:47:34;;;;;;;0.38;0.10;;;;;;;38.28;34.06;99855.09;7399310;19;20062;-59
2023/08/06 08:50:01;;;;;;;1.05;0.60;;;;;;;38.45;33.57;99851.31;7395759;19;20039;-59
2023/08/06 08:52:30;;;;;;;0.60;0.35;;;;;;;38.71;33.62;99847.84;7396969;19;20022;-59
2023/08/06 08:54:56;;;;;;;0.90;0.30;;;;;;;38.86;33.45;99858.56;7400037;19;20355;-59
2023/08/06 08:57:22;;;;;;;0.68;0.30;;;;;;;38.88;32.86;99852.84;7397542;19;20039;-58
2023/08/06 08:59:48;;;;;;;2.15;0.47;;;;;;;39.15;32.82;99861.03;7396855;19;20360;-57
2023/08/06 09:02:15;;;;;;;0.30;0.20;;;;;;;38.93;33.21;99869.00;7396091;19;20011;-58
2023/08/06 09:04:44;;;;;;;0.35;0.15;;;;;;;38.74;33.36;99864.00;7397585;19;20074;-58
2023/08/06 09:07:15;;;;;;;0.22;0.22;;;;;;;38.92;33.62;99861.72;7400117;19;20074;-58
2023/08/06 09:09:43;;;;;;;2.38;0.70;;;;;;;39.86;32.26;99867.69;7397679;19;20490;-58
2023/08/06 09:12:16;;;;;;;0.50;0.25;;;;;;;40.35;32.33;99863.28;7400869;19;20015;-58
2023/08/06 09:14:44;;;;;;;0.10;0.10;;;;;;;40.42;31.99;99870.78;7396241;19;20010;-58
2023/08/06 09:17:10;;;;;;;0.40;0.17;;;;;;;40.55;31.99;99869.69;7397066;19;20074;-58
2023/08/06 09:19:37;;;;;;;1.30;0.75;;;;;;;40.62;31.95;99869.16;7399175;19;20014;-58
2023/08/06 09:22:03;;;;;;;1.00;0.38;;;;;;;37.78;34.05;99879.31;7393553;19;20074;-58
2023/08/06 09:24:29;;;;;;;3.10;0.35;;;;;;;36.83;34.71;99877.56;7397278;19;20082;-58
2023/08/06 09:26:55;;;;;;;1.17;0.30;;;;;;;36.30;35.55;99877.41;7397024;19;20037;-58
2023/08/06 09:29:22;;;;;;;0.80;0.22;;;;;;;35.99;36.77;99883.22;7397192;19;20022;-58
2023/08/06 09:31:51;;;;;;;0.10;0.10;;;;;;;36.55;36.86;99882.91;7400150;19;20010;-58
2023/08/06 09:34:22;;;;;;;0.70;0.15;;;;;;;37.09;36.14;99875.78;7396929;19;20084;-59
2023/08/06 09:36:48;;;;;;;;;;;;;;;35.32;38.19;99882.91;7399520;19;20817;-59
2023/08/06 09:39:18;;;;;;;0.50;0.13;;;;;;;36.00;37.84;99881.81;7396563;19;19918;-59
2023/08/06 09:41:48;;;;;;;0.20;0.15;;;;;;;35.97;37.73;99883.13;7398300;19;20039;-59
2023/08/06 09:44:24;;;;;;;0.52;0.52;;;;;;;35.63;38.34;99891.69;7395176;19;20014;-58
2023/08/06 09:46:59;;;;;;;0.20;0.15;;;;;;;35.49;39.15;99884.47;7395318;19;20501;-59
2023/08/06 09:49:32;;;;;;;0.20;0.20;;;;;;;37.93;36.68;99881.38;7394889;19;20007;-59
2023/08/06 09:51:59;;;;;;;1.42;0.30;;;;;;;35.68;38.69;99892.63;7400517;19;20017;-59
2023/08/06 09:54:28;;;;;;;0.10;0.10;;;;;;;36.64;38.54;99884.75;7397128;19;20038;-59
2023/08/06 09:56:54;;;;;;;0.20;0.20;;;;;;;36.55;38.38;99891.59;7395590;19;20039;-60
2023/08/06 09:59:22;;;;;;;1.27;0.10;;;;;;;36.83;38.00;99895.72;7395406;19;20021;-60
2023/08/06 10:01:48;;;;;;;2.28;0.60;;;;;;;36.87;38.61;99890.09;7393972;19;20017;-60
2023/08/06 10:04:18;;;;;;;0.10;0.03;;;;;;;38.49;36.24;99880.56;7394910;19;20018;-60
2023/08/06 10:06:50;;;;;;;1.45;0.52;;;;;;;39.34;35.11;99889.34;7395377;19;20019;-59
2023/08/06 10:09:16;;;;;;;1.05;0.25;;;;;;;39.93;33.73;99891.94;7395231;19;20035;-60
2023/08/06 10:11:47;;;;;;;2.28;0.57;;;;;;;39.57;33.58;99894.47;7397172;19;20410;-61
2023/08/06 10:14:19;;;;;;;5.78;1.10;;;;;;;39.85;32.74;99894.63;7395514;19;20019;-60
2023/08/06 10:16:47;;;;;;;0.40;0.30;;;;;;;39.72;32.69;99899.31;7392509;19;20015;-60
2023/08/06 10:19:15;;;;;;;1.15;0.22;;;;;;;39.80;32.83;99896.69;7394557;19;20010;-59
2023/08/06 10:21:41;;;;;;;0.75;0.35;;;;;;;40.92;31.91;99901.38;7397190;19;20078;-60
2023/08/06 10:24:10;;;;;;;3.28;0.80;;;;;;;41.58;31.36;99902.31;7394788;19;20080;-59
2023/08/06 10:26:37;;;;;;;1.10;0.43;;;;;;;41.87;30.47;99906.63;7393550;19;20335;-60
2023/08/06 10:29:36;;;;;;;1.65;0.38;;;;;;;40.65;31.26;99905.03;7395692;19;20077;-60
2023/08/06 10:32:04;;;;;;;0.77;0.43;;;;;;;40.27;31.67;99903.91;7398980;19;20015;-60
2023/08/06 10:34:57;;;;;;;0.45;0.22;;;;;;;40.36;31.09;99905.63;7394189;19;20021;-58
2023/08/06 10:37:24;;;;;;;3.50;0.20;;;;;;;40.54;31.04;99903.25;7398084;19;20011;-59
2023/08/06 10:39:52;;;;;;;0.38;0.32;;;;;;;40.85;31.65;99908.50;7389998;19;20046;-58
2023/08/06 10:42:28;;;;;;;2.60;0.43;;;;;;;40.90;30.48;99901.34;7394591;19;20014;-59
2023/08/06 10:45:17;;;;;;;0.20;0.10;;;;;;;40.74;30.22;99907.47;7392374;19;20035;-59
2023/08/06 10:47:45;;;;;;;0.38;0.30;;;;;;;41.17;30.44;99905.69;7394352;19;20010;-59
2023/08/06 10:50:18;;;;;;;0.60;0.25;;;;;;;41.15;30.32;99906.34;7393629;19;20074;-59
2023/08/06 10:52:46;;;;;;;0.40;0.17;;;;;;;41.25;30.84;99915.41;7392008;19;20015;-59
2023/08/06 10:55:14;;;;;;;1.13;0.38;;;;;;;41.49;30.39;99907.25;7393944;19;20022;-59
2023/08/06 10:57:40;;;;;;;0.38;0.10;;;;;;;41.85;29.14;99909.53;7392442;19;20340;-57
2023/08/06 11:00:08;;;;;;;0.10;0.10;;;;;;;42.34;29.07;99917.19;7392987;19;20014;-57
2023/08/06 11:02:35;;;;;;;0.30;0.00;;;;;;;42.34;29.32;99923.81;7392462;19;20092;-57
2023/08/06 11:05:09;;;;;;;3.50;0.20;;;;;;;42.16;29.06;99920.47;7394783;19;20459;-57
2023/08/06 11:07:36;;;;;;;0.38;0.10;;;;;;;41.77;28.77;99921.06;7394070;19;20046;-57
2023/08/06 11:10:07;;;;;;;0.25;0.20;;;;;;;41.67;29.29;99923.75;7392229;19;20029;-57
2023/08/06 11:12:34;;;;;;;0.10;0.10;;;;;;;41.79;29.72;99912.31;7389919;19;20386;-56
2023/08/06 11:15:02;;;;;;;0.17;0.10;;;;;;;42.16;28.98;99920.47;7397032;19;20044;-56
2023/08/06 11:17:33;;;;;;;0.10;0.10;;;;;;;41.17;29.14;99918.13;7395050;19;20014;-58
2023/08/06 11:20:00;;;;;;;0.30;0.20;;;;;;;36.80;33.10;99926.06;7396951;19;20053;-58
2023/08/06 11:22:30;;;;;;;0.10;0.10;;;;;;;36.42;34.53;99927.25;7394121;19;20006;-58
2023/08/06 11:24:57;;;;;;;7.18;1.10;;;;;;;38.10;33.31;99915.47;7392401;19;20018;-58
2023/08/06 11:27:23;;;;;;;0.30;0.10;;;;;;;39.02;32.25;99911.56;7393314;19;20042;-57
2023/08/06 11:29:49;;;;;;;0.10;0.10;;;;;;;39.26;32.30;99915.31;7390967;19;20478;-58
2023/08/06 11:32:15;;;;;;;0.85;0.30;;;;;;;38.26;34.02;99921.94;7396831;19;20007;-58
2023/08/06 11:34:43;;;;;;;1.58;0.20;;;;;;;38.08;33.72;99918.31;7393089;19;20022;-58
2023/08/06 11:37:10;;;;;;;0.65;0.30;;;;;;;37.98;34.17;99915.03;7395932;19;20082;-57
2023/08/06 11:39:37;;;;;;;0.65;0.20;;;;;;;36.87;34.72;99930.00;7391641;19;20512;-57
2023/08/06 11:42:05;;;;;;;2.05;0.10;;;;;;;36.33;34.84;99931.19;7394667;19;20018;-56